Humphreys, MO

8:58 AM CST on March 05, 2015 (GMT -0600)
North Central Missouri | Change Station
CLOSE
Current Station
Personal Weather Station
Location: Browning, MO
Elevation: 810 ft
Nearby Weather Stations

Elev 810 ft 40.04 °N, 93.16 °W | Updated 3 seconds ago

Clear
Clear
11.1 °F
Feels Like 4 °F
N
4.0
Wind Variable Wind from NW
Gusts 12.0 mph

Today
High -- | Low -- °F
--% Chance of Precip.
Yesterday
High -- | Low -- °F
Precip. -- in
6:40 AM 6:09 PM
Full, 100% visible
Pressure 30.56 in
Visibility 10.0 miles
Clouds Clear
Windchill 4 °F
Dew Point 2 °F
Humidity 67%
Rainfall in
Snow Depth Not available.
UV 1 out of 12
Pollen .50 out of 12
Air Quality Not available.
Flu Activity Not available.
METAR KTVK 051435Z AUTO 32008KT 10SM CLR M14/M19 A3056 RMK AO2

More Conditions Fewer Conditions

Pressure 30.56 in
Visibility 10.0 miles
Clouds Clear
Windchill 4 °F
Dew Point 2 °F
Humidity 67%
Rainfall in
Snow Depth Not available.
UV 1 out of 12
Pollen .50 out of 12
Air Quality Not available.
Flu Activity Not available.
METAR KTVK 051435Z AUTO 32008KT 10SM CLR M14/M19 A3056 RMK AO2

More Conditions Fewer Conditions

10-Day Weather Forecast

Almanac

Astronomy

Mar. 05, 2015 Rise Set
Actual Time
Civil Twilight
Nautical Twilight
Astronomical Twilight
Moon
Length of Visible Light
Length of Day
Tomorrow will be .
, % of the Moon is Illuminated

Today's Extremes

State Highs State Lows

Community

WunderPhotos

Upload Photos

1,802,789 photos uploaded!

WunderBlogs® & News

Nearby

Air Quality

  Air Quality AQ Index Pollutant
Not available.

Snow Depth

Station Depth Elevation

Earthquake Activity

City Distance Mag. Time & Date
Minimum magnitude displayed is 2.5.

Coastal Water Temperatures

Place Temperature

Nearby Weather Stations